Terminal Aerodrome Forecast
Issued by NWS

Home | Current Version | Previous Version | Text Only | Print | Product List | Glossary Off
Versions: 1 2 3 4 5 6 7 8 9 10 11 12 13 14 15 16 17 18 19 20 21

000
FTUS43 KMPX 251500 AAB
TAFAXN
TAF AMD
KAXN 251535Z 2516/2612 16006KT P6SM BKN015 BKN035
     FM251800 23007KT P6SM BKN040
     FM252100 31009KT P6SM SCT050
     FM260100 29004KT P6SM SKC=

USA.gov is the U.S. government's official web portal to all federal, state and local government web resources and services.